createdAt,value
2022-09-15T00:01:14.002Z,100.00
2022-09-15T00:03:46.888Z,100.00
2022-09-15T00:06:14.808Z,100.00
2022-09-15T00:08:42.796Z,100.00
2022-09-15T00:11:20.680Z,100.00
2022-09-15T00:13:48.960Z,100.00
2022-09-15T00:16:18.547Z,100.00
2022-09-15T00:18:46.613Z,100.00
2022-09-15T00:21:24.968Z,100.00
2022-09-15T00:23:52.537Z,100.00
2022-09-15T00:26:23.868Z,100.00
2022-09-15T00:28:52.292Z,100.00
2022-09-15T00:31:25.555Z,100.00
2022-09-15T00:33:56.390Z,100.00
2022-09-15T00:36:26.252Z,100.00
2022-09-15T00:38:54.058Z,100.00
2022-09-15T00:41:23.706Z,100.00
2022-09-15T00:43:59.200Z,100.00
2022-09-15T00:46:35.849Z,100.00
2022-09-15T00:49:21.038Z,100.00
2022-09-15T00:51:57.126Z,100.00
2022-09-15T00:54:54.842Z,100.00
2022-09-15T00:57:52.944Z,100.00
2022-09-15T01:00:25.019Z,100.00
2022-09-15T01:02:52.368Z,100.00
2022-09-15T01:05:24.338Z,100.00
2022-09-15T01:08:02.288Z,100.00
2022-09-15T01:10:37.076Z,100.00
2022-09-15T01:13:09.051Z,100.00
2022-09-15T01:16:01.778Z,100.00
2022-09-15T01:18:57.869Z,100.00
2022-09-15T01:21:48.161Z,100.00
2022-09-15T01:24:43.548Z,100.00
2022-09-15T01:28:14.387Z,100.00
2022-09-15T01:31:06.178Z,100.00
2022-09-15T01:34:03.197Z,100.00
2022-09-15T01:37:07.400Z,100.00
2022-09-15T01:39:41.789Z,100.00
2022-09-15T01:42:16.579Z,100.00
2022-09-15T01:44:51.966Z,100.00
2022-09-15T01:47:22.988Z,100.00
2022-09-15T01:50:12.051Z,100.00
2022-09-15T01:52:44.837Z,100.00
2022-09-15T01:55:24.640Z,100.00
2022-09-15T01:57:52.239Z,100.00
2022-09-15T02:00:19.815Z,100.00
2022-09-15T02:03:00.992Z,100.00
2022-09-15T02:05:45.156Z,100.00
2022-09-15T02:08:25.249Z,100.00
2022-09-15T02:11:19.676Z,100.00
2022-09-15T02:14:10.602Z,100.00
2022-09-15T02:16:43.873Z,100.00
2022-09-15T02:19:19.804Z,100.00
2022-09-15T02:22:11.208Z,100.00
2022-09-15T02:24:51.342Z,100.00
2022-09-15T02:27:25.423Z,100.00
2022-09-15T02:30:00.084Z,100.00
2022-09-15T02:32:30.940Z,100.00
2022-09-15T02:35:06.766Z,100.00
2022-09-15T02:37:38.454Z,100.00
2022-09-15T02:40:07.135Z,100.00
2022-09-15T02:42:35.272Z,100.00
2022-09-15T02:45:04.603Z,100.00
2022-09-15T02:47:32.316Z,100.00
2022-09-15T02:50:00.257Z,100.00
2022-09-15T02:52:27.447Z,100.00
2022-09-15T02:54:54.586Z,100.00
2022-09-15T02:57:21.994Z,100.00
2022-09-15T03:00:07.528Z,100.00
2022-09-15T03:02:35.590Z,100.00
2022-09-15T03:05:02.852Z,100.00
2022-09-15T03:07:30.239Z,100.00
2022-09-15T03:09:58.598Z,100.00
2022-09-15T03:12:26.420Z,100.00
2022-09-15T03:14:53.604Z,100.00
2022-09-15T03:17:20.998Z,100.00
2022-09-15T03:19:48.205Z,100.00
2022-09-15T03:22:15.444Z,100.00
2022-09-15T03:24:42.879Z,100.00
2022-09-15T03:27:10.208Z,100.00
2022-09-15T03:29:37.402Z,100.00
2022-09-15T03:32:04.993Z,100.00
2022-09-15T03:34:32.169Z,100.00
2022-09-15T03:36:59.324Z,100.00
2022-09-15T03:39:26.988Z,100.00
2022-09-15T03:41:54.186Z,100.00
2022-09-15T03:44:21.573Z,100.00
2022-09-15T03:46:50.020Z,100.00
2022-09-15T03:49:17.643Z,100.00
2022-09-15T03:51:44.998Z,100.00
2022-09-15T03:54:12.735Z,100.00
2022-09-15T03:56:40.056Z,100.00
2022-09-15T03:59:07.736Z,100.00
2022-09-15T04:01:36.037Z,100.00
2022-09-15T04:04:03.412Z,100.00
2022-09-15T04:06:31.404Z,100.00
2022-09-15T04:09:00.234Z,100.00
2022-09-15T04:11:27.450Z,100.00
2022-09-15T04:13:55.200Z,100.00
2022-09-15T04:16:24.913Z,100.00
2022-09-15T04:18:53.423Z,100.00
2022-09-15T04:21:24.571Z,100.00
2022-09-15T04:23:54.123Z,100.00
2022-09-15T04:26:31.393Z,100.00
2022-09-15T04:29:03.968Z,100.00
2022-09-15T04:31:33.495Z,100.00
2022-09-15T04:34:01.386Z,100.00
2022-09-15T04:36:29.604Z,100.00
2022-09-15T04:38:58.306Z,100.00
2022-09-15T04:41:27.390Z,100.00
2022-09-15T04:43:54.879Z,100.00
2022-09-15T04:46:22.224Z,100.00
2022-09-15T04:48:49.831Z,100.00
2022-09-15T04:51:21.318Z,100.00
2022-09-15T04:53:50.196Z,100.00
2022-09-15T04:56:25.717Z,100.00
2022-09-15T04:59:02.720Z,100.00
2022-09-15T05:01:35.506Z,100.00
2022-09-15T05:04:04.641Z,100.00
2022-09-15T05:06:33.327Z,100.00
2022-09-15T05:09:04.459Z,100.00
2022-09-15T05:11:35.119Z,100.00
2022-09-15T05:14:03.491Z,100.00
2022-09-15T05:16:31.582Z,100.00
2022-09-15T05:19:01.808Z,100.00
2022-09-15T05:21:29.699Z,100.00
2022-09-15T05:23:57.409Z,100.00
2022-09-15T05:26:28.726Z,100.00
2022-09-15T05:28:57.369Z,100.00
2022-09-15T05:31:31.495Z,100.00
2022-09-15T05:34:04.645Z,100.00
2022-09-15T05:36:33.048Z,100.00
2022-09-15T05:39:02.123Z,100.00
2022-09-15T05:41:30.187Z,100.00
2022-09-15T05:43:58.909Z,100.00
2022-09-15T05:46:27.736Z,100.00
2022-09-15T05:48:58.340Z,100.00
2022-09-15T05:51:26.014Z,100.00
2022-09-15T05:53:53.527Z,100.00
2022-09-15T05:56:21.039Z,100.00
2022-09-15T05:58:49.509Z,100.00
2022-09-15T06:01:23.589Z,100.00
2022-09-15T06:03:51.630Z,100.00
2022-09-15T06:06:20.079Z,100.00
2022-09-15T06:08:54.241Z,100.00
2022-09-15T06:11:35.266Z,100.00
2022-09-15T06:14:04.628Z,100.00
2022-09-15T06:16:35.260Z,100.00
2022-09-15T06:19:03.567Z,100.00
2022-09-15T06:21:32.844Z,100.00
2022-09-15T06:24:04.632Z,100.00
2022-09-15T06:26:31.869Z,100.00
2022-09-15T06:29:02.085Z,100.00
2022-09-15T06:31:32.951Z,100.00
2022-09-15T06:34:01.171Z,100.00
2022-09-15T06:36:31.113Z,100.00
2022-09-15T06:38:59.481Z,100.00
2022-09-15T06:41:38.163Z,100.00
2022-09-15T06:44:15.042Z,100.00
2022-09-15T06:46:42.422Z,100.00
2022-09-15T06:49:10.180Z,100.00
2022-09-15T06:51:37.598Z,100.00
2022-09-15T06:54:06.323Z,100.00
2022-09-15T06:56:37.855Z,100.00
2022-09-15T06:59:05.890Z,100.00
2022-09-15T07:01:39.133Z,100.00
2022-09-15T07:04:11.258Z,100.00
2022-09-15T07:06:40.191Z,100.00
2022-09-15T07:09:07.617Z,100.00
2022-09-15T07:11:34.940Z,100.00
2022-09-15T07:14:02.353Z,100.00
2022-09-15T07:16:30.176Z,100.00
2022-09-15T07:19:00.602Z,100.00
2022-09-15T07:21:28.513Z,100.00
2022-09-15T07:23:57.974Z,100.00
2022-09-15T07:26:29.035Z,100.00
2022-09-15T07:29:00.405Z,100.00
2022-09-15T07:31:32.135Z,100.00
2022-09-15T07:34:01.177Z,100.00
2022-09-15T07:36:30.045Z,99.66
2022-09-15T07:38:57.939Z,98.85
2022-09-15T07:41:29.912Z,97.75
2022-09-15T07:44:00.289Z,97.17
2022-09-15T07:46:32.255Z,95.53
2022-09-15T07:49:00.969Z,94.82
2022-09-15T07:51:28.391Z,93.83
2022-09-15T07:53:56.177Z,94.70
2022-09-15T07:56:24.636Z,95.10
2022-09-15T07:58:52.361Z,94.57
2022-09-15T08:01:22.623Z,94.40
2022-09-15T08:03:52.753Z,94.21
2022-09-15T08:06:24.762Z,93.14
2022-09-15T08:08:59.992Z,92.49
2022-09-15T08:11:29.316Z,91.73
2022-09-15T08:14:00.321Z,90.54
2022-09-15T08:16:27.671Z,90.48
2022-09-15T08:18:55.515Z,89.69
2022-09-15T08:21:24.781Z,90.02
2022-09-15T08:23:56.283Z,90.38
2022-09-15T08:26:26.694Z,90.05
2022-09-15T08:28:54.633Z,89.50
2022-09-15T08:31:24.427Z,89.35
2022-09-15T08:33:56.304Z,90.00
2022-09-15T08:36:28.217Z,91.65
2022-09-15T08:38:56.652Z,92.42
2022-09-15T08:41:44.343Z,93.16
2022-09-15T08:45:09.524Z,93.17
2022-09-15T08:47:44.589Z,93.56
2022-09-15T08:50:23.165Z,94.63
2022-09-15T08:53:15.548Z,95.12
2022-09-15T08:56:17.239Z,94.73
2022-09-15T08:58:48.275Z,93.23
2022-09-15T09:02:14.589Z,92.35
2022-09-15T09:05:31.537Z,91.94
2022-09-15T09:08:43.653Z,90.75
2022-09-15T09:11:47.505Z,89.17
2022-09-15T09:14:41.049Z,85.73
2022-09-15T09:17:55.018Z,83.32
2022-09-15T09:20:47.489Z,82.64
2022-09-15T09:23:22.062Z,80.69
2022-09-15T09:25:50.140Z,80.70
2022-09-15T09:28:42.402Z,81.90
2022-09-15T09:31:20.205Z,82.53
2022-09-15T09:33:58.845Z,81.89
2022-09-15T09:36:27.217Z,82.94
2022-09-15T09:38:56.227Z,82.55
2022-09-15T09:41:35.614Z,81.50
2022-09-15T09:44:10.274Z,80.58
2022-09-15T09:46:38.848Z,80.19
2022-09-15T09:49:23.500Z,80.87
2022-09-15T09:51:55.911Z,80.36
2022-09-15T09:54:28.805Z,80.07
2022-09-15T09:57:17.133Z,79.68
2022-09-15T09:59:54.076Z,79.08
2022-09-15T10:02:29.144Z,77.99
2022-09-15T10:05:20.494Z,77.32
2022-09-15T10:07:47.922Z,77.62
2022-09-15T10:10:26.121Z,77.09
2022-09-15T10:12:57.334Z,77.49
2022-09-15T10:15:32.372Z,77.29
2022-09-15T10:18:01.484Z,78.50
2022-09-15T10:20:40.598Z,79.08
2022-09-15T10:23:22.554Z,79.67
2022-09-15T10:26:00.178Z,80.67
2022-09-15T10:28:28.178Z,80.99
2022-09-15T10:31:13.562Z,81.69
2022-09-15T10:33:45.432Z,83.14
2022-09-15T10:36:20.538Z,84.61
2022-09-15T10:39:00.624Z,85.36
2022-09-15T10:41:31.232Z,85.90
2022-09-15T10:44:13.136Z,86.66
2022-09-15T10:47:01.912Z,86.63
2022-09-15T10:50:07.067Z,87.31
2022-09-15T10:52:49.252Z,87.60
2022-09-15T10:55:53.059Z,88.19
2022-09-15T10:59:14.811Z,88.40
2022-09-15T11:02:02.188Z,88.69
2022-09-15T11:04:57.103Z,89.51
2022-09-15T11:07:47.949Z,89.32
2022-09-15T11:10:29.197Z,88.76
2022-09-15T11:13:25.870Z,87.91
2022-09-15T11:16:14.262Z,86.95
2022-09-15T11:19:11.841Z,85.27
2022-09-15T11:22:01.967Z,84.15
2022-09-15T11:24:43.140Z,82.92
2022-09-15T11:27:26.117Z,82.89
2022-09-15T11:30:44.455Z,82.89
2022-09-15T11:33:29.897Z,81.82
2022-09-15T11:36:10.012Z,81.62
2022-09-15T11:39:16.372Z,82.13
2022-09-15T11:42:06.827Z,82.55
2022-09-15T11:44:45.210Z,82.73
2022-09-15T11:47:27.325Z,84.14
2022-09-15T11:50:10.978Z,85.48
2022-09-15T11:52:46.825Z,86.43
2022-09-15T11:55:39.126Z,87.49
2022-09-15T11:58:30.739Z,89.09
2022-09-15T12:01:13.812Z,88.37
2022-09-15T12:04:03.203Z,88.29
2022-09-15T12:06:47.428Z,87.57
2022-09-15T12:09:19.240Z,86.15
2022-09-15T12:11:51.621Z,84.39
2022-09-15T12:14:39.082Z,83.89
2022-09-15T12:17:11.393Z,82.99
2022-09-15T12:19:49.900Z,82.86
2022-09-15T12:22:43.040Z,83.68
2022-09-15T12:25:41.353Z,84.75
2022-09-15T12:28:24.248Z,85.74
2022-09-15T12:31:24.022Z,86.45
2022-09-15T12:34:06.385Z,86.78
2022-09-15T12:36:41.607Z,87.13
2022-09-15T12:39:30.174Z,87.49
2022-09-15T12:42:18.868Z,87.88
2022-09-15T12:45:19.650Z,87.55
2022-09-15T12:48:23.040Z,87.55
2022-09-15T12:51:07.497Z,87.62
2022-09-15T12:53:50.091Z,87.70
2022-09-15T12:56:31.193Z,87.56
2022-09-15T12:59:07.139Z,87.42
2022-09-15T13:01:44.373Z,87.64
2022-09-15T13:04:25.358Z,88.08
2022-09-15T13:07:18.624Z,88.74
2022-09-15T13:09:59.484Z,89.23
2022-09-15T13:12:36.080Z,89.52
2022-09-15T13:15:16.324Z,89.81
2022-09-15T13:17:47.402Z,89.55
2022-09-15T13:20:34.214Z,89.79
2022-09-15T13:23:36.759Z,89.87
2022-09-15T13:26:11.427Z,89.89
2022-09-15T13:28:39.946Z,89.77
2022-09-15T13:31:48.247Z,90.37
2022-09-15T13:38:22.097Z,92.26
2022-09-15T13:41:31.182Z,93.07
2022-09-15T13:44:26.396Z,93.02
2022-09-15T13:47:27.168Z,93.54
2022-09-15T13:50:07.231Z,93.59
2022-09-15T13:53:11.355Z,93.49
2022-09-15T13:55:43.399Z,93.59
2022-09-15T14:01:07.626Z,93.82
2022-09-15T14:03:41.803Z,93.60
2022-09-15T14:06:28.113Z,93.16
2022-09-15T14:09:01.006Z,93.15
2022-09-15T14:11:33.579Z,92.66
2022-09-15T14:14:01.584Z,92.17
2022-09-15T14:16:37.911Z,92.48
2022-09-15T14:19:38.542Z,92.33
2022-09-15T14:22:22.665Z,91.96
2022-09-15T14:24:51.823Z,92.01
2022-09-15T14:27:32.472Z,92.16
2022-09-15T14:30:07.236Z,92.30
2022-09-15T14:32:45.854Z,92.90
2022-09-15T14:35:20.077Z,93.07
2022-09-15T14:37:54.446Z,93.01
2022-09-15T14:40:35.925Z,93.24
2022-09-15T14:43:03.867Z,93.03
2022-09-15T14:48:30.808Z,92.24
2022-09-15T14:51:08.793Z,91.91
2022-09-15T14:53:41.957Z,91.84
2022-09-15T14:56:11.649Z,91.67
2022-09-15T14:59:00.072Z,91.57
2022-09-15T15:01:38.881Z,91.26
2022-09-15T15:04:13.448Z,90.95
2022-09-15T15:07:13.580Z,90.68
2022-09-15T15:09:48.148Z,90.74
2022-09-15T15:12:29.295Z,90.42
2022-09-15T15:14:58.856Z,90.21
2022-09-15T15:17:42.167Z,90.32
2022-09-15T15:20:09.304Z,90.61
2022-09-15T15:22:39.297Z,90.60
2022-09-15T15:25:36.308Z,90.95
2022-09-15T15:28:06.122Z,91.02
2022-09-15T15:30:40.887Z,91.18
2022-09-15T15:33:25.300Z,91.65
2022-09-15T15:36:12.101Z,91.81
2022-09-15T15:38:51.231Z,91.95
2022-09-15T15:41:26.250Z,92.58
2022-09-15T15:44:18.255Z,92.66
2022-09-15T15:47:02.785Z,92.63
2022-09-15T15:49:32.730Z,92.59
2022-09-15T15:52:01.812Z,92.55
2022-09-15T15:54:29.499Z,92.63
2022-09-15T15:57:25.658Z,93.07
2022-09-15T15:59:58.943Z,93.79
2022-09-15T16:02:28.032Z,94.20
2022-09-15T16:04:55.268Z,94.13
2022-09-15T16:07:24.533Z,94.35
2022-09-15T16:09:54.226Z,94.53
2022-09-15T16:12:21.699Z,94.34
2022-09-15T16:14:48.822Z,94.19
2022-09-15T16:17:16.744Z,93.84
2022-09-15T16:19:43.891Z,93.81
2022-09-15T16:22:23.117Z,93.05
2022-09-15T16:24:50.534Z,93.05
2022-09-15T16:27:18.898Z,92.76
2022-09-15T16:29:46.332Z,92.31
2022-09-15T16:32:21.741Z,92.42
2022-09-15T16:34:51.355Z,93.25
2022-09-15T16:37:18.766Z,94.06
2022-09-15T16:39:46.591Z,94.30
2022-09-15T16:42:14.377Z,93.76
2022-09-15T16:44:41.843Z,94.99
2022-09-15T16:47:09.234Z,94.80
2022-09-15T16:49:39.501Z,94.96
2022-09-15T16:52:12.819Z,95.06
2022-09-15T16:54:40.062Z,95.27
2022-09-15T16:57:07.644Z,95.68
2022-09-15T16:59:34.853Z,96.24
2022-09-15T17:02:02.261Z,97.37
2022-09-15T17:04:29.683Z,98.01
2022-09-15T17:06:56.993Z,97.95
2022-09-15T17:09:24.190Z,97.93
2022-09-15T17:11:52.134Z,98.88
2022-09-15T17:14:19.842Z,99.14
2022-09-15T17:16:52.690Z,99.12
2022-09-15T17:19:20.190Z,99.75
2022-09-15T17:21:48.204Z,99.65
2022-09-15T17:24:15.357Z,99.31
2022-09-15T17:26:42.824Z,98.81
2022-09-15T17:29:10.061Z,98.98
2022-09-15T17:31:37.387Z,99.12
2022-09-15T17:34:06.548Z,99.50
2022-09-15T17:36:36.406Z,99.74
2022-09-15T17:39:03.810Z,99.94
2022-09-15T17:41:32.460Z,99.62
2022-09-15T17:43:59.667Z,100.00
2022-09-15T17:46:26.949Z,99.75
2022-09-15T17:48:54.597Z,100.00
2022-09-15T17:51:22.044Z,100.00
2022-09-15T17:53:49.396Z,99.54
2022-09-15T17:56:16.972Z,99.43
2022-09-15T17:58:45.430Z,99.04
2022-09-15T18:01:15.660Z,98.91
2022-09-15T18:03:45.596Z,98.73
2022-09-15T18:06:13.284Z,98.41
2022-09-15T18:08:40.996Z,98.29
2022-09-15T18:11:11.214Z,98.24
2022-09-15T18:13:38.607Z,98.36
2022-09-15T18:16:12.615Z,98.04
2022-09-15T18:18:41.095Z,97.62
2022-09-15T18:21:24.684Z,96.97
2022-09-15T18:23:52.859Z,96.22
2022-09-15T18:26:25.395Z,95.53
2022-09-15T18:28:57.137Z,95.13
2022-09-15T18:31:25.063Z,95.22
2022-09-15T18:33:52.384Z,94.83
2022-09-15T18:36:20.759Z,95.33
2022-09-15T18:38:48.034Z,95.66
2022-09-15T18:41:16.222Z,95.73
2022-09-15T18:43:43.988Z,95.52
2022-09-15T18:46:11.242Z,95.67
2022-09-15T18:48:38.505Z,96.20
2022-09-15T18:51:09.156Z,96.97
2022-09-15T18:53:37.493Z,96.97
2022-09-15T18:56:13.600Z,96.92
2022-09-15T18:58:41.700Z,97.01
2022-09-15T19:01:09.061Z,96.72
2022-09-15T19:03:37.965Z,97.45
2022-09-15T19:06:07.124Z,97.45
2022-09-15T19:08:36.562Z,98.12
2022-09-15T19:11:04.603Z,98.25
2022-09-15T19:13:32.431Z,98.77
2022-09-15T19:16:05.670Z,99.37
2022-09-15T19:18:34.139Z,99.38
2022-09-15T19:21:11.346Z,99.33
2022-09-15T19:23:39.352Z,99.97
2022-09-15T19:26:13.600Z,100.00
2022-09-15T19:28:42.457Z,100.00
2022-09-15T19:31:10.489Z,100.00
2022-09-15T19:33:38.118Z,100.00
2022-09-15T19:36:28.031Z,100.00
2022-09-15T19:39:00.382Z,100.00
2022-09-15T19:41:27.741Z,100.00
2022-09-15T19:43:59.359Z,100.00
2022-09-15T19:46:26.718Z,100.00
2022-09-15T19:48:54.864Z,100.00
2022-09-15T19:51:22.960Z,100.00
2022-09-15T19:53:53.847Z,100.00
2022-09-15T19:56:26.773Z,100.00
2022-09-15T19:58:57.236Z,100.00
2022-09-15T20:01:28.609Z,100.00
2022-09-15T20:06:43.107Z,100.00
2022-09-15T20:09:11.145Z,100.00
2022-09-15T20:11:39.486Z,100.00
2022-09-15T20:14:08.417Z,100.00
2022-09-15T20:16:36.235Z,100.00
2022-09-15T20:19:06.758Z,100.00
2022-09-15T20:21:53.008Z,100.00
2022-09-15T20:24:24.968Z,100.00
2022-09-15T20:26:54.039Z,100.00
2022-09-15T20:29:21.957Z,100.00
2022-09-15T20:31:49.846Z,100.00
2022-09-15T20:34:19.415Z,100.00
2022-09-15T20:36:47.096Z,100.00
2022-09-15T20:39:16.023Z,100.00
2022-09-15T20:41:47.551Z,100.00
2022-09-15T20:44:15.734Z,100.00
2022-09-15T20:46:43.926Z,100.00
2022-09-15T20:49:13.190Z,100.00
2022-09-15T20:51:40.720Z,100.00
2022-09-15T20:54:08.306Z,100.00
2022-09-15T20:56:38.340Z,100.00
2022-09-15T20:59:08.537Z,100.00
2022-09-15T21:01:38.901Z,100.00
2022-09-15T21:04:10.631Z,100.00
2022-09-15T21:06:38.630Z,100.00
2022-09-15T21:09:07.746Z,100.00
2022-09-15T21:11:36.128Z,100.00
2022-09-15T21:14:04.405Z,100.00
2022-09-15T21:16:33.998Z,100.00
2022-09-15T21:19:03.957Z,100.00
2022-09-15T21:21:33.762Z,100.00
2022-09-15T21:24:06.179Z,100.00
2022-09-15T21:27:01.085Z,100.00
2022-09-15T21:29:29.634Z,100.00
2022-09-15T21:31:57.898Z,100.00
2022-09-15T21:34:26.493Z,100.00
2022-09-15T21:36:53.969Z,100.00
2022-09-15T21:39:21.872Z,100.00
2022-09-15T21:41:50.203Z,100.00
2022-09-15T21:44:17.755Z,100.00
2022-09-15T21:46:47.412Z,100.00
2022-09-15T21:49:15.340Z,100.00
2022-09-15T21:51:42.963Z,100.00
2022-09-15T21:54:10.658Z,100.00
2022-09-15T21:56:38.230Z,100.00
2022-09-15T21:59:06.080Z,100.00
2022-09-15T22:01:34.166Z,100.00
2022-09-15T22:04:08.713Z,100.00
2022-09-15T22:06:40.669Z,100.00
2022-09-15T22:09:14.720Z,100.00
2022-09-15T22:11:43.631Z,100.00
2022-09-15T22:14:13.302Z,100.00
2022-09-15T22:16:42.647Z,100.00
2022-09-15T22:19:12.070Z,100.00
2022-09-15T22:21:42.160Z,100.00
2022-09-15T22:24:13.654Z,100.00
2022-09-15T22:26:43.782Z,100.00
2022-09-15T22:29:11.462Z,100.00
2022-09-15T22:31:39.145Z,100.00
2022-09-15T22:34:06.843Z,100.00
2022-09-15T22:36:34.623Z,100.00
2022-09-15T22:39:06.353Z,100.00
2022-09-15T22:41:38.980Z,100.00
2022-09-15T22:44:16.921Z,100.00
2022-09-15T22:46:45.130Z,100.00
2022-09-15T22:49:12.785Z,100.00
2022-09-15T22:51:40.190Z,100.00
2022-09-15T22:54:07.802Z,100.00
2022-09-15T22:56:35.165Z,100.00
2022-09-15T22:59:02.972Z,100.00
2022-09-15T23:01:31.241Z,100.00
2022-09-15T23:04:02.331Z,100.00
2022-09-15T23:06:33.237Z,100.00
2022-09-15T23:09:05.326Z,100.00
2022-09-15T23:11:33.381Z,100.00
2022-09-15T23:14:02.045Z,100.00
2022-09-15T23:16:31.239Z,100.00
2022-09-15T23:18:59.726Z,100.00
2022-09-15T23:21:28.127Z,100.00
2022-09-15T23:23:56.599Z,100.00
2022-09-15T23:26:25.417Z,100.00
2022-09-15T23:28:53.546Z,100.00
2022-09-15T23:31:21.889Z,100.00
2022-09-15T23:33:49.479Z,100.00
2022-09-15T23:36:22.127Z,100.00
2022-09-15T23:38:50.074Z,100.00
2022-09-15T23:41:18.221Z,100.00
2022-09-15T23:43:46.434Z,100.00
2022-09-15T23:46:14.851Z,100.00
2022-09-15T23:48:43.189Z,100.00
2022-09-15T23:51:10.823Z,100.00
2022-09-15T23:53:38.927Z,100.00
2022-09-15T23:56:06.642Z,100.00
2022-09-15T23:58:33.943Z,100.00
